Time;durP1;ratioP1;P1;durP2;ratioP2;P2;SDS_P1;SDS_P2;PMS_P1;PMS_P2;Temp;Humidity;BMP_temperature;BMP_pressure;BME280_temperature;BME280_humidity;BME280_pressure;Samples;Min_cycle;Max_cycle;Signal;HPM_P1;HPM_P2
2022/12/16 00:01:41;;;;;;;20.85;14.77;;;0.90;99.90;;;;;;5030871;28;20440;-83
2022/12/16 00:04:07;;;;;;;17.80;14.93;;;0.70;99.90;;;;;;5030357;28;20433;-82
2022/12/16 00:06:33;;;;;;;17.50;14.55;;;0.90;99.90;;;;;;5029931;28;20443;-80
2022/12/16 00:09:00;;;;;;;16.33;13.20;;;0.80;99.90;;;;;;5048111;28;20784;-83
2022/12/16 00:11:25;;;;;;;16.02;13.40;;;1.00;99.90;;;;;;5028620;28;20440;-85
2022/12/16 00:13:51;;;;;;;16.83;13.50;;;0.80;99.90;;;;;;5047314;28;20421;-83
2022/12/16 00:16:19;;;;;;;20.08;11.85;;;1.10;99.90;;;;;;5042986;28;20421;-85
2022/12/16 00:18:46;;;;;;;15.98;12.98;;;1.10;99.90;;;;;;5047454;28;20448;-84
2022/12/16 00:21:12;;;;;;;15.73;11.90;;;0.80;99.90;;;;;;5031194;28;20926;-83
2022/12/16 00:23:40;;;;;;;17.33;12.40;;;0.80;99.90;;;;;;5030699;28;20416;-84
2022/12/16 00:26:06;;;;;;;15.43;11.20;;;1.20;99.90;;;;;;5030785;28;20788;-84
2022/12/16 00:28:33;;;;;;;13.75;10.55;;;1.00;99.90;;;;;;5021455;28;20927;-82
2022/12/16 00:30:58;;;;;;;14.05;10.98;;;1.20;99.90;;;;;;5029972;28;20441;-85
2022/12/16 00:33:26;;;;;;;12.50;9.40;;;0.90;99.90;;;;;;5047551;28;20451;-85
2022/12/16 00:35:52;;;;;;;12.90;10.30;;;0.90;99.90;;;;;;5048836;28;20486;-82
2022/12/16 00:38:19;;;;;;;13.95;9.73;;;1.20;99.90;;;;;;5046377;28;20449;-85
2022/12/16 00:40:45;;;;;;;14.90;9.88;;;0.80;99.90;;;;;;5048822;28;20429;-83
2022/12/16 00:43:11;;;;;;;13.93;9.32;;;0.90;99.90;;;;;;5029655;28;20421;-85
2022/12/16 00:45:38;;;;;;;16.67;9.60;;;0.70;99.90;;;;;;5027146;28;20433;-85
2022/12/16 00:48:04;;;;;;;13.07;9.20;;;0.80;99.90;;;;;;5044409;28;20578;-85
2022/12/16 00:50:30;;;;;;;16.27;9.43;;;0.90;99.90;;;;;;5048169;28;20508;-85
2022/12/16 00:52:56;;;;;;;14.27;9.57;;;0.90;99.90;;;;;;5029712;28;20505;-80
2022/12/16 00:55:21;;;;;;;14.43;8.98;;;0.90;99.90;;;;;;5045102;28;20429;-84
2022/12/16 00:57:47;;;;;;;14.95;9.02;;;0.70;99.90;;;;;;5029353;28;20421;-83
2022/12/16 01:00:15;;;;;;;12.50;8.50;;;0.90;99.90;;;;;;5030224;28;20516;-81
2022/12/16 01:02:43;;;;;;;10.55;8.00;;;0.80;99.90;;;;;;5044852;28;20417;-82
2022/12/16 01:05:10;;;;;;;13.63;7.80;;;0.90;99.90;;;;;;5047148;28;20441;-81
2022/12/16 01:07:36;;;;;;;12.95;7.32;;;0.60;99.90;;;;;;5048522;28;20443;-81
2022/12/16 01:10:03;;;;;;;13.60;7.53;;;0.70;99.90;;;;;;5049927;28;20417;-82
2022/12/16 01:12:29;;;;;;;12.45;6.63;;;0.80;99.90;;;;;;5050249;28;20417;-80
2022/12/16 01:14:54;;;;;;;12.00;7.15;;;0.70;99.90;;;;;;5037442;28;20419;-81
2022/12/16 01:17:20;;;;;;;9.37;6.50;;;0.50;99.90;;;;;;5047613;28;21098;-81
2022/12/16 01:19:45;;;;;;;10.20;5.90;;;0.70;99.90;;;;;;5047516;28;20425;-82
2022/12/16 01:22:11;;;;;;;11.60;5.47;;;0.50;99.90;;;;;;5048702;28;20402;-82
2022/12/16 01:24:37;;;;;;;10.93;5.47;;;0.50;99.90;;;;;;5046465;28;20909;-81
2022/12/16 01:27:02;;;;;;;13.40;5.37;;;0.70;99.90;;;;;;5046104;28;20821;-80
2022/12/16 01:29:28;;;;;;;9.50;5.40;;;0.50;99.90;;;;;;5047643;28;20418;-84
2022/12/16 01:31:54;;;;;;;12.30;5.13;;;0.50;99.90;;;;;;5029504;28;20456;-82
2022/12/16 01:34:19;;;;;;;14.43;6.70;;;0.50;99.90;;;;;;5045085;28;20764;-81
2022/12/16 01:36:46;;;;;;;10.53;4.97;;;0.70;99.90;;;;;;5028913;28;20433;-81
2022/12/16 01:39:12;;;;;;;15.50;6.88;;;0.70;99.90;;;;;;5030745;28;20415;-82
2022/12/16 01:41:38;;;;;;;11.30;6.30;;;0.70;99.90;;;;;;5009757;28;20439;-78
2022/12/16 01:44:21;;;;;;;12.32;5.63;;;0.60;99.90;;;;;;5019242;28;20780;-80
2022/12/16 01:46:55;;;;;;;10.57;5.35;;;0.70;99.90;;;;;;5040148;28;20442;-80
2022/12/16 01:49:35;;;;;;;11.48;5.78;;;0.60;99.90;;;;;;5044503;28;20474;-81
2022/12/16 01:52:04;;;;;;;9.40;5.95;;;0.70;99.90;;;;;;5029841;28;20800;-82
2022/12/16 01:54:40;;;;;;;10.77;5.18;;;0.70;99.90;;;;;;5038806;28;20784;-82
2022/12/16 01:57:19;;;;;;;10.48;5.75;;;0.80;99.90;;;;;;5027494;28;20433;-81
2022/12/16 01:59:47;;;;;;;13.45;5.90;;;0.90;99.90;;;;;;5038723;28;20421;-82
2022/12/16 02:02:13;;;;;;;10.10;5.40;;;0.90;99.90;;;;;;5029730;28;20429;-80
2022/12/16 02:05:19;;;;;;;9.88;5.65;;;0.90;99.90;;;;;;5027673;28;20429;-81
2022/12/16 02:07:24;;;;;;;12.90;5.22;;;1.00;99.90;;;;;;5048907;28;20456;-82
2022/12/16 02:09:51;;;;;;;6.97;5.53;;;0.90;99.90;;;;;;5022080;28;21023;-82
2022/12/16 02:12:23;;;;;;;12.52;6.10;;;1.00;99.90;;;;;;5045720;28;20429;-81
2022/12/16 02:15:19;;;;;;;10.02;5.45;;;1.00;99.90;;;;;;5046362;28;20421;-81
2022/12/16 02:18:03;;;;;;;10.02;5.35;;;1.00;99.90;;;;;;5016350;28;20440;-79
2022/12/16 02:20:35;;;;;;;10.88;6.78;;;1.00;99.90;;;;;;5033420;28;20433;-81
2022/12/16 02:23:15;;;;;;;12.00;6.13;;;0.90;99.90;;;;;;5029115;28;20740;-79
2022/12/16 02:26:15;;;;;;;11.65;6.20;;;1.00;99.90;;;;;;5013785;28;20434;-81
2022/12/16 02:28:56;;;;;;;8.82;5.95;;;1.10;99.90;;;;;;5050861;28;20452;-79
2022/12/16 02:32:04;;;;;;;9.85;5.60;;;1.20;99.90;;;;;;5016664;28;20411;-81
2022/12/16 02:34:36;;;;;;;11.98;5.72;;;1.20;99.90;;;;;;5008704;28;20423;-82
2022/12/16 02:37:43;;;;;;;13.73;6.43;;;1.20;99.90;;;;;;5010808;28;20446;-80
2022/12/16 02:40:34;;;;;;;9.40;6.13;;;1.30;99.90;;;;;;5028019;28;20715;-79
2022/12/16 02:43:07;;;;;;;8.98;5.90;;;1.30;99.90;;;;;;5026479;28;20436;-81
2022/12/16 02:45:35;;;;;;;9.40;5.30;;;1.30;99.90;;;;;;5012810;28;20438;-79
2022/12/16 02:48:00;;;;;;;10.80;5.57;;;1.40;99.90;;;;;;5043377;28;20966;-82
2022/12/16 02:50:35;;;;;;;12.63;5.70;;;1.40;99.90;;;;;;5028220;28;20425;-80
2022/12/16 02:53:01;;;;;;;8.00;5.35;;;1.40;99.90;;;;;;5045438;28;20417;-82
2022/12/16 02:56:11;;;;;;;9.88;5.90;;;1.40;99.90;;;;;;5049395;28;20424;-81
2022/12/16 02:59:10;;;;;;;8.07;5.53;;;1.40;99.90;;;;;;5018019;28;20504;-80
2022/12/16 03:01:58;;;;;;;9.50;5.60;;;1.40;99.90;;;;;;5027027;28;20421;-83
2022/12/16 03:04:39;;;;;;;8.93;5.88;;;1.30;99.90;;;;;;5041884;28;20432;-83
2022/12/16 03:07:09;;;;;;;9.20;5.72;;;1.40;99.90;;;;;;5047837;28;20523;-80
2022/12/16 03:09:38;;;;;;;9.30;5.07;;;1.30;99.90;;;;;;5060189;28;20489;-81
2022/12/16 03:12:10;;;;;;;10.43;5.97;;;1.30;99.90;;;;;;5042097;28;20409;-80
2022/12/16 03:14:40;;;;;;;13.00;6.35;;;1.30;99.90;;;;;;5033339;28;20438;-82
2022/12/16 03:17:08;;;;;;;8.27;5.68;;;1.40;99.90;;;;;;5012492;28;20418;-80
2022/12/16 03:19:36;;;;;;;9.20;5.33;;;1.40;99.90;;;;;;5045928;28;20484;-80
2022/12/16 03:22:07;;;;;;;7.80;4.95;;;1.40;99.90;;;;;;5049431;28;20934;-81
2022/12/16 03:24:34;;;;;;;8.05;5.22;;;1.30;99.90;;;;;;5038810;28;20429;-81
2022/12/16 03:27:03;;;;;;;8.75;5.30;;;1.30;99.90;;;;;;5049336;28;20684;-83
2022/12/16 03:29:35;;;;;;;10.30;5.47;;;1.20;99.90;;;;;;5047421;28;22416;-82
2022/12/16 03:32:14;;;;;;;9.32;5.80;;;1.30;99.90;;;;;;5031896;28;20498;-83
2022/12/16 03:34:47;;;;;;;7.50;5.10;;;1.30;99.90;;;;;;5037421;28;20425;-81
2022/12/16 03:37:13;;;;;;;7.75;5.25;;;1.20;99.90;;;;;;5030880;28;20429;-80
2022/12/16 03:39:46;;;;;;;8.35;5.30;;;1.20;99.90;;;;;;5031238;28;20784;-83
2022/12/16 03:42:14;;;;;;;9.27;5.20;;;1.20;99.90;;;;;;5047291;28;20505;-82
2022/12/16 03:44:42;;;;;;;12.68;5.70;;;1.20;99.90;;;;;;5047434;28;20431;-81
2022/12/16 03:47:08;;;;;;;8.52;5.57;;;1.20;99.90;;;;;;5029707;28;20433;-83
2022/12/16 03:49:33;;;;;;;9.45;5.30;;;1.20;99.90;;;;;;5048817;28;20427;-83
2022/12/16 03:51:59;;;;;;;10.45;5.38;;;1.30;99.90;;;;;;5019529;28;20435;-80
2022/12/16 03:54:24;;;;;;;9.98;5.40;;;1.00;99.90;;;;;;5044043;28;20425;-82
2022/12/16 03:56:50;;;;;;;10.70;5.70;;;1.00;99.90;;;;;;5047737;28;20482;-82
2022/12/16 03:59:16;;;;;;;9.80;5.30;;;0.90;99.90;;;;;;5027726;28;20430;-82
2022/12/16 04:01:42;;;;;;;9.23;5.00;;;0.90;99.90;;;;;;5022972;28;20436;-79
2022/12/16 04:04:08;;;;;;;10.80;5.70;;;0.90;99.90;;;;;;5045106;28;20424;-81
2022/12/16 04:06:34;;;;;;;8.88;5.00;;;1.00;99.90;;;;;;5047769;28;20465;-81
2022/12/16 04:09:00;;;;;;;7.65;4.90;;;0.90;99.90;;;;;;5014681;28;20433;-82
2022/12/16 04:25:34;;;;;;;7.20;4.60;;;1.10;99.90;;;;;;5044685;28;20555;-84
2022/12/16 04:28:00;;;;;;;6.45;4.00;;;1.20;99.90;;;;;;5010577;28;20924;-84
2022/12/16 04:30:28;;;;;;;8.07;4.75;;;1.20;99.90;;;;;;5045193;28;20433;-85
